sensor_id;sensor_type;location;lat;lon;timestamp;P1;durP1;ratioP1;P2;durP2;ratioP2
53881;SDS011;39794;55.782;37.452;2023-02-15T00:00:32;2.53;;;0.70;;
53881;SDS011;39794;55.782;37.452;2023-02-15T00:03:01;5.88;;;0.75;;
53881;SDS011;39794;55.782;37.452;2023-02-15T00:05:32;2.72;;;0.80;;
53881;SDS011;39794;55.782;37.452;2023-02-15T00:08:01;3.47;;;1.00;;
53881;SDS011;39794;55.782;37.452;2023-02-15T00:10:33;2.25;;;0.73;;
53881;SDS011;39794;55.782;37.452;2023-02-15T00:13:02;3.47;;;1.23;;
53881;SDS011;39794;55.782;37.452;2023-02-15T00:15:34;2.58;;;0.80;;
53881;SDS011;39794;55.782;37.452;2023-02-15T00:18:03;1.92;;;0.90;;
53881;SDS011;39794;55.782;37.452;2023-02-15T00:20:31;3.92;;;0.75;;
53881;SDS011;39794;55.782;37.452;2023-02-15T00:23:00;3.17;;;1.02;;
53881;SDS011;39794;55.782;37.452;2023-02-15T00:25:28;2.28;;;0.90;;
53881;SDS011;39794;55.782;37.452;2023-02-15T00:27:57;4.38;;;1.10;;
53881;SDS011;39794;55.782;37.452;2023-02-15T00:30:27;3.13;;;0.90;;
53881;SDS011;39794;55.782;37.452;2023-02-15T00:32:57;0.85;;;0.70;;
53881;SDS011;39794;55.782;37.452;2023-02-15T00:35:26;1.63;;;0.65;;
53881;SDS011;39794;55.782;37.452;2023-02-15T00:37:54;2.58;;;0.80;;
53881;SDS011;39794;55.782;37.452;2023-02-15T00:40:24;1.58;;;0.82;;
53881;SDS011;39794;55.782;37.452;2023-02-15T00:42:55;1.65;;;1.00;;
53881;SDS011;39794;55.782;37.452;2023-02-15T00:45:25;1.27;;;0.80;;
53881;SDS011;39794;55.782;37.452;2023-02-15T00:47:53;4.93;;;0.80;;
53881;SDS011;39794;55.782;37.452;2023-02-15T00:50:23;2.50;;;0.70;;
53881;SDS011;39794;55.782;37.452;2023-02-15T00:52:52;2.85;;;1.05;;
53881;SDS011;39794;55.782;37.452;2023-02-15T00:55:21;4.35;;;1.10;;
53881;SDS011;39794;55.782;37.452;2023-02-15T00:57:49;1.10;;;0.80;;
53881;SDS011;39794;55.782;37.452;2023-02-15T01:00:18;4.43;;;1.00;;
53881;SDS011;39794;55.782;37.452;2023-02-15T01:02:46;4.30;;;0.75;;
53881;SDS011;39794;55.782;37.452;2023-02-15T01:05:15;2.67;;;1.15;;
53881;SDS011;39794;55.782;37.452;2023-02-15T01:07:45;3.15;;;0.80;;
53881;SDS011;39794;55.782;37.452;2023-02-15T01:10:14;1.48;;;0.73;;
53881;SDS011;39794;55.782;37.452;2023-02-15T01:12:42;0.77;;;0.75;;
53881;SDS011;39794;55.782;37.452;2023-02-15T01:15:11;4.15;;;0.90;;
53881;SDS011;39794;55.782;37.452;2023-02-15T01:17:39;4.55;;;1.33;;
53881;SDS011;39794;55.782;37.452;2023-02-15T01:20:08;1.33;;;0.90;;
53881;SDS011;39794;55.782;37.452;2023-02-15T01:22:37;3.72;;;0.90;;
53881;SDS011;39794;55.782;37.452;2023-02-15T01:25:07;1.50;;;0.80;;
53881;SDS011;39794;55.782;37.452;2023-02-15T01:27:36;0.70;;;0.70;;
53881;SDS011;39794;55.782;37.452;2023-02-15T01:30:05;1.70;;;0.95;;
53881;SDS011;39794;55.782;37.452;2023-02-15T01:32:35;0.82;;;0.60;;
53881;SDS011;39794;55.782;37.452;2023-02-15T01:35:04;4.60;;;1.10;;
53881;SDS011;39794;55.782;37.452;2023-02-15T01:37:33;3.33;;;0.60;;
53881;SDS011;39794;55.782;37.452;2023-02-15T01:40:05;1.85;;;1.20;;
53881;SDS011;39794;55.782;37.452;2023-02-15T01:42:38;4.70;;;1.00;;
53881;SDS011;39794;55.782;37.452;2023-02-15T01:45:13;3.30;;;1.00;;
53881;SDS011;39794;55.782;37.452;2023-02-15T01:47:48;2.25;;;0.88;;
53881;SDS011;39794;55.782;37.452;2023-02-15T01:50:20;1.52;;;0.60;;
53881;SDS011;39794;55.782;37.452;2023-02-15T01:52:53;3.88;;;0.50;;
53881;SDS011;39794;55.782;37.452;2023-02-15T01:55:27;4.22;;;0.82;;
53881;SDS011;39794;55.782;37.452;2023-02-15T01:57:58;3.70;;;1.00;;
53881;SDS011;39794;55.782;37.452;2023-02-15T02:00:27;2.15;;;0.90;;
53881;SDS011;39794;55.782;37.452;2023-02-15T02:02:56;2.63;;;1.48;;
53881;SDS011;39794;55.782;37.452;2023-02-15T02:05:25;2.40;;;0.80;;
53881;SDS011;39794;55.782;37.452;2023-02-15T02:07:54;2.13;;;0.95;;
53881;SDS011;39794;55.782;37.452;2023-02-15T02:10:26;1.23;;;0.73;;
53881;SDS011;39794;55.782;37.452;2023-02-15T02:12:57;0.60;;;0.60;;
53881;SDS011;39794;55.782;37.452;2023-02-15T02:15:28;2.47;;;0.98;;
53881;SDS011;39794;55.782;37.452;2023-02-15T02:18:03;1.30;;;0.90;;
53881;SDS011;39794;55.782;37.452;2023-02-15T02:23:51;1.13;;;0.90;;
53881;SDS011;39794;55.782;37.452;2023-02-15T02:29:51;0.98;;;0.85;;
53881;SDS011;39794;55.782;37.452;2023-02-15T02:33:04;2.67;;;0.90;;
53881;SDS011;39794;55.782;37.452;2023-02-15T02:35:39;5.13;;;1.00;;
53881;SDS011;39794;55.782;37.452;2023-02-15T02:38:16;1.83;;;1.00;;
53881;SDS011;39794;55.782;37.452;2023-02-15T02:40:51;2.03;;;0.93;;
53881;SDS011;39794;55.782;37.452;2023-02-15T02:43:25;2.58;;;0.70;;
53881;SDS011;39794;55.782;37.452;2023-02-15T02:45:58;1.00;;;0.82;;
53881;SDS011;39794;55.782;37.452;2023-02-15T02:48:32;1.75;;;1.00;;
53881;SDS011;39794;55.782;37.452;2023-02-15T02:51:01;3.03;;;1.15;;
53881;SDS011;39794;55.782;37.452;2023-02-15T02:53:30;2.80;;;1.27;;
53881;SDS011;39794;55.782;37.452;2023-02-15T02:55:59;1.98;;;1.10;;
53881;SDS011;39794;55.782;37.452;2023-02-15T02:58:35;1.35;;;0.88;;
53881;SDS011;39794;55.782;37.452;2023-02-15T03:01:08;3.17;;;1.13;;
53881;SDS011;39794;55.782;37.452;2023-02-15T03:03:40;5.80;;;1.40;;
53881;SDS011;39794;55.782;37.452;2023-02-15T03:06:11;1.17;;;0.80;;
53881;SDS011;39794;55.782;37.452;2023-02-15T03:08:45;4.43;;;1.08;;
53881;SDS011;39794;55.782;37.452;2023-02-15T03:11:15;2.10;;;1.35;;
53881;SDS011;39794;55.782;37.452;2023-02-15T03:13:44;3.42;;;0.80;;
53881;SDS011;39794;55.782;37.452;2023-02-15T03:16:13;1.58;;;1.10;;
53881;SDS011;39794;55.782;37.452;2023-02-15T03:18:57;4.70;;;0.90;;
53881;SDS011;39794;55.782;37.452;2023-02-15T03:21:31;2.17;;;0.70;;
53881;SDS011;39794;55.782;37.452;2023-02-15T03:24:08;2.70;;;1.08;;
53881;SDS011;39794;55.782;37.452;2023-02-15T03:26:41;1.33;;;0.88;;
53881;SDS011;39794;55.782;37.452;2023-02-15T03:29:11;3.53;;;1.38;;
53881;SDS011;39794;55.782;37.452;2023-02-15T03:31:42;2.25;;;0.85;;
53881;SDS011;39794;55.782;37.452;2023-02-15T03:34:14;1.75;;;1.02;;
53881;SDS011;39794;55.782;37.452;2023-02-15T03:36:45;1.50;;;1.00;;
53881;SDS011;39794;55.782;37.452;2023-02-15T03:39:17;2.45;;;1.00;;
53881;SDS011;39794;55.782;37.452;2023-02-15T03:41:49;3.53;;;0.88;;
53881;SDS011;39794;55.782;37.452;2023-02-15T03:44:24;1.48;;;0.60;;
53881;SDS011;39794;55.782;37.452;2023-02-15T03:46:56;2.38;;;0.85;;
53881;SDS011;39794;55.782;37.452;2023-02-15T03:49:30;1.42;;;0.90;;
53881;SDS011;39794;55.782;37.452;2023-02-15T03:52:03;0.95;;;0.75;;
53881;SDS011;39794;55.782;37.452;2023-02-15T03:54:33;2.22;;;0.85;;
53881;SDS011;39794;55.782;37.452;2023-02-15T03:57:17;1.55;;;0.90;;
53881;SDS011;39794;55.782;37.452;2023-02-15T04:00:05;3.17;;;1.00;;
53881;SDS011;39794;55.782;37.452;2023-02-15T04:03:07;1.52;;;1.02;;
53881;SDS011;39794;55.782;37.452;2023-02-15T04:05:44;1.95;;;1.02;;
53881;SDS011;39794;55.782;37.452;2023-02-15T04:08:12;2.53;;;0.85;;
53881;SDS011;39794;55.782;37.452;2023-02-15T04:10:43;1.92;;;1.35;;
53881;SDS011;39794;55.782;37.452;2023-02-15T04:13:19;3.00;;;0.85;;
53881;SDS011;39794;55.782;37.452;2023-02-15T04:15:48;2.30;;;0.90;;
53881;SDS011;39794;55.782;37.452;2023-02-15T04:21:21;2.22;;;1.02;;
53881;SDS011;39794;55.782;37.452;2023-02-15T04:24:10;2.33;;;1.00;;
53881;SDS011;39794;55.782;37.452;2023-02-15T04:26:58;1.85;;;1.05;;
53881;SDS011;39794;55.782;37.452;2023-02-15T04:29:27;3.50;;;0.93;;
53881;SDS011;39794;55.782;37.452;2023-02-15T04:31:57;2.97;;;1.00;;
53881;SDS011;39794;55.782;37.452;2023-02-15T04:34:29;1.85;;;0.55;;
53881;SDS011;39794;55.782;37.452;2023-02-15T04:37:01;2.33;;;0.98;;
53881;SDS011;39794;55.782;37.452;2023-02-15T04:39:29;1.48;;;0.73;;
53881;SDS011;39794;55.782;37.452;2023-02-15T04:41:58;3.10;;;0.93;;
53881;SDS011;39794;55.782;37.452;2023-02-15T04:44:28;7.25;;;0.93;;
53881;SDS011;39794;55.782;37.452;2023-02-15T04:46:56;1.10;;;0.98;;
53881;SDS011;39794;55.782;37.452;2023-02-15T04:49:25;4.95;;;1.05;;
53881;SDS011;39794;55.782;37.452;2023-02-15T04:51:53;1.67;;;0.90;;
53881;SDS011;39794;55.782;37.452;2023-02-15T04:54:23;4.07;;;0.75;;
53881;SDS011;39794;55.782;37.452;2023-02-15T04:56:52;3.75;;;0.90;;
53881;SDS011;39794;55.782;37.452;2023-02-15T04:59:20;2.10;;;1.08;;
53881;SDS011;39794;55.782;37.452;2023-02-15T05:01:51;1.45;;;0.80;;
53881;SDS011;39794;55.782;37.452;2023-02-15T05:04:20;1.52;;;1.10;;
53881;SDS011;39794;55.782;37.452;2023-02-15T05:06:48;1.85;;;1.30;;
53881;SDS011;39794;55.782;37.452;2023-02-15T05:09:17;1.63;;;1.00;;
53881;SDS011;39794;55.782;37.452;2023-02-15T05:11:46;3.15;;;1.13;;
53881;SDS011;39794;55.782;37.452;2023-02-15T05:14:17;1.10;;;1.00;;
53881;SDS011;39794;55.782;37.452;2023-02-15T05:16:46;5.65;;;1.20;;
53881;SDS011;39794;55.782;37.452;2023-02-15T05:19:15;5.72;;;1.27;;
53881;SDS011;39794;55.782;37.452;2023-02-15T05:21:43;2.22;;;0.90;;
53881;SDS011;39794;55.782;37.452;2023-02-15T05:24:12;2.45;;;1.20;;
53881;SDS011;39794;55.782;37.452;2023-02-15T05:26:59;1.45;;;0.95;;
53881;SDS011;39794;55.782;37.452;2023-02-15T05:29:45;7.32;;;1.40;;
53881;SDS011;39794;55.782;37.452;2023-02-15T05:32:16;1.35;;;1.25;;
53881;SDS011;39794;55.782;37.452;2023-02-15T05:37:19;2.05;;;1.10;;
53881;SDS011;39794;55.782;37.452;2023-02-15T05:39:47;2.75;;;1.10;;
53881;SDS011;39794;55.782;37.452;2023-02-15T05:42:17;6.22;;;1.55;;
53881;SDS011;39794;55.782;37.452;2023-02-15T05:44:46;2.88;;;1.63;;
53881;SDS011;39794;55.782;37.452;2023-02-15T05:47:16;3.28;;;1.35;;
53881;SDS011;39794;55.782;37.452;2023-02-15T05:49:44;5.72;;;2.33;;
53881;SDS011;39794;55.782;37.452;2023-02-15T05:52:13;3.70;;;1.75;;
53881;SDS011;39794;55.782;37.452;2023-02-15T05:54:41;5.53;;;1.65;;
53881;SDS011;39794;55.782;37.452;2023-02-15T05:57:10;3.92;;;1.65;;
53881;SDS011;39794;55.782;37.452;2023-02-15T05:59:40;4.00;;;1.65;;
53881;SDS011;39794;55.782;37.452;2023-02-15T06:02:08;6.03;;;1.80;;
53881;SDS011;39794;55.782;37.452;2023-02-15T06:04:38;7.57;;;1.60;;
53881;SDS011;39794;55.782;37.452;2023-02-15T06:07:08;5.68;;;1.85;;
53881;SDS011;39794;55.782;37.452;2023-02-15T06:09:39;3.33;;;1.63;;
53881;SDS011;39794;55.782;37.452;2023-02-15T06:12:07;6.32;;;1.77;;
53881;SDS011;39794;55.782;37.452;2023-02-15T06:14:39;5.28;;;2.72;;
53881;SDS011;39794;55.782;37.452;2023-02-15T06:17:08;7.55;;;2.75;;
53881;SDS011;39794;55.782;37.452;2023-02-15T06:19:37;2.55;;;1.60;;
53881;SDS011;39794;55.782;37.452;2023-02-15T06:22:05;10.05;;;2.50;;
53881;SDS011;39794;55.782;37.452;2023-02-15T06:24:34;5.78;;;1.98;;
53881;SDS011;39794;55.782;37.452;2023-02-15T06:27:04;4.43;;;1.77;;
53881;SDS011;39794;55.782;37.452;2023-02-15T06:29:36;6.45;;;2.20;;
53881;SDS011;39794;55.782;37.452;2023-02-15T06:32:06;8.63;;;2.03;;
53881;SDS011;39794;55.782;37.452;2023-02-15T06:34:35;4.47;;;1.52;;
53881;SDS011;39794;55.782;37.452;2023-02-15T06:37:06;7.63;;;2.05;;
53881;SDS011;39794;55.782;37.452;2023-02-15T06:39:35;11.55;;;2.42;;
53881;SDS011;39794;55.782;37.452;2023-02-15T06:42:04;8.30;;;1.98;;
53881;SDS011;39794;55.782;37.452;2023-02-15T06:44:32;5.38;;;1.35;;
53881;SDS011;39794;55.782;37.452;2023-02-15T06:47:01;2.35;;;1.63;;
53881;SDS011;39794;55.782;37.452;2023-02-15T06:49:32;2.28;;;1.50;;
53881;SDS011;39794;55.782;37.452;2023-02-15T06:52:01;2.00;;;1.58;;
53881;SDS011;39794;55.782;37.452;2023-02-15T06:54:31;4.13;;;1.70;;
53881;SDS011;39794;55.782;37.452;2023-02-15T06:56:59;6.70;;;2.33;;
53881;SDS011;39794;55.782;37.452;2023-02-15T06:59:28;7.65;;;1.70;;
53881;SDS011;39794;55.782;37.452;2023-02-15T07:01:57;4.40;;;1.88;;
53881;SDS011;39794;55.782;37.452;2023-02-15T07:04:26;4.57;;;1.77;;
53881;SDS011;39794;55.782;37.452;2023-02-15T07:07:01;5.00;;;1.70;;
53881;SDS011;39794;55.782;37.452;2023-02-15T07:09:32;6.55;;;1.88;;
53881;SDS011;39794;55.782;37.452;2023-02-15T07:12:00;3.85;;;2.13;;
53881;SDS011;39794;55.782;37.452;2023-02-15T07:14:46;3.47;;;1.27;;
53881;SDS011;39794;55.782;37.452;2023-02-15T07:17:15;4.85;;;1.85;;
53881;SDS011;39794;55.782;37.452;2023-02-15T07:20:01;5.57;;;2.17;;
53881;SDS011;39794;55.782;37.452;2023-02-15T07:22:31;3.38;;;1.65;;
53881;SDS011;39794;55.782;37.452;2023-02-15T07:25:00;5.55;;;1.95;;
53881;SDS011;39794;55.782;37.452;2023-02-15T07:27:31;3.58;;;1.80;;
53881;SDS011;39794;55.782;37.452;2023-02-15T07:30:01;5.43;;;1.75;;
53881;SDS011;39794;55.782;37.452;2023-02-15T07:32:30;3.67;;;1.67;;
53881;SDS011;39794;55.782;37.452;2023-02-15T07:34:59;3.67;;;1.70;;
53881;SDS011;39794;55.782;37.452;2023-02-15T07:37:29;4.13;;;1.38;;
53881;SDS011;39794;55.782;37.452;2023-02-15T07:39:59;7.75;;;2.35;;
53881;SDS011;39794;55.782;37.452;2023-02-15T07:42:30;2.90;;;1.85;;
53881;SDS011;39794;55.782;37.452;2023-02-15T07:44:58;3.72;;;1.77;;
53881;SDS011;39794;55.782;37.452;2023-02-15T07:47:31;4.60;;;1.85;;
53881;SDS011;39794;55.782;37.452;2023-02-15T07:50:02;5.55;;;2.25;;
53881;SDS011;39794;55.782;37.452;2023-02-15T07:52:31;5.00;;;1.90;;
53881;SDS011;39794;55.782;37.452;2023-02-15T07:55:03;5.82;;;1.83;;
53881;SDS011;39794;55.782;37.452;2023-02-15T07:57:32;7.32;;;2.30;;
53881;SDS011;39794;55.782;37.452;2023-02-15T08:00:00;3.38;;;1.80;;
53881;SDS011;39794;55.782;37.452;2023-02-15T08:02:38;4.20;;;2.05;;
53881;SDS011;39794;55.782;37.452;2023-02-15T08:05:06;4.57;;;2.28;;
53881;SDS011;39794;55.782;37.452;2023-02-15T08:07:37;2.90;;;1.50;;
53881;SDS011;39794;55.782;37.452;2023-02-15T08:10:09;3.63;;;1.83;;
53881;SDS011;39794;55.782;37.452;2023-02-15T08:12:58;2.30;;;1.50;;
53881;SDS011;39794;55.782;37.452;2023-02-15T08:15:30;2.63;;;1.80;;
53881;SDS011;39794;55.782;37.452;2023-02-15T08:17:59;2.80;;;1.60;;
53881;SDS011;39794;55.782;37.452;2023-02-15T08:20:27;2.30;;;1.38;;
53881;SDS011;39794;55.782;37.452;2023-02-15T08:22:56;1.90;;;1.75;;
53881;SDS011;39794;55.782;37.452;2023-02-15T08:25:26;5.78;;;2.08;;
53881;SDS011;39794;55.782;37.452;2023-02-15T08:27:57;6.45;;;1.80;;
53881;SDS011;39794;55.782;37.452;2023-02-15T08:30:25;6.78;;;1.38;;
53881;SDS011;39794;55.782;37.452;2023-02-15T08:32:54;5.13;;;1.58;;
53881;SDS011;39794;55.782;37.452;2023-02-15T08:35:22;2.88;;;1.17;;
53881;SDS011;39794;55.782;37.452;2023-02-15T08:37:53;4.05;;;1.08;;
53881;SDS011;39794;55.782;37.452;2023-02-15T08:40:22;1.73;;;1.23;;
53881;SDS011;39794;55.782;37.452;2023-02-15T08:42:52;1.67;;;1.27;;
53881;SDS011;39794;55.782;37.452;2023-02-15T08:45:20;3.72;;;1.23;;
53881;SDS011;39794;55.782;37.452;2023-02-15T08:47:50;3.88;;;1.75;;
53881;SDS011;39794;55.782;37.452;2023-02-15T08:50:23;3.83;;;1.58;;
53881;SDS011;39794;55.782;37.452;2023-02-15T08:52:51;2.47;;;1.80;;
53881;SDS011;39794;55.782;37.452;2023-02-15T08:55:23;4.40;;;1.60;;
53881;SDS011;39794;55.782;37.452;2023-02-15T08:57:54;2.33;;;1.70;;
53881;SDS011;39794;55.782;37.452;2023-02-15T09:00:23;5.30;;;2.50;;
53881;SDS011;39794;55.782;37.452;2023-02-15T09:02:51;2.25;;;1.45;;
53881;SDS011;39794;55.782;37.452;2023-02-15T09:05:23;3.03;;;1.42;;
53881;SDS011;39794;55.782;37.452;2023-02-15T09:07:55;6.20;;;1.65;;
53881;SDS011;39794;55.782;37.452;2023-02-15T09:10:26;5.40;;;1.27;;
53881;SDS011;39794;55.782;37.452;2023-02-15T09:12:56;3.13;;;1.70;;
53881;SDS011;39794;55.782;37.452;2023-02-15T09:15:24;3.10;;;1.67;;
53881;SDS011;39794;55.782;37.452;2023-02-15T09:17:53;2.85;;;1.60;;
53881;SDS011;39794;55.782;37.452;2023-02-15T09:20:21;3.55;;;1.70;;
53881;SDS011;39794;55.782;37.452;2023-02-15T09:22:51;3.63;;;1.73;;
53881;SDS011;39794;55.782;37.452;2023-02-15T09:25:23;3.42;;;1.67;;
53881;SDS011;39794;55.782;37.452;2023-02-15T09:27:52;4.10;;;2.30;;
53881;SDS011;39794;55.782;37.452;2023-02-15T09:30:21;3.25;;;2.05;;
53881;SDS011;39794;55.782;37.452;2023-02-15T09:32:52;9.05;;;2.63;;
53881;SDS011;39794;55.782;37.452;2023-02-15T09:35:20;4.97;;;2.45;;
53881;SDS011;39794;55.782;37.452;2023-02-15T09:37:49;4.07;;;1.58;;
53881;SDS011;39794;55.782;37.452;2023-02-15T09:40:17;1.63;;;1.30;;
53881;SDS011;39794;55.782;37.452;2023-02-15T09:45:44;4.03;;;1.60;;
53881;SDS011;39794;55.782;37.452;2023-02-15T09:54:04;4.50;;;1.73;;
53881;SDS011;39794;55.782;37.452;2023-02-15T09:56:52;2.03;;;1.17;;
53881;SDS011;39794;55.782;37.452;2023-02-15T09:59:27;2.45;;;1.27;;
53881;SDS011;39794;55.782;37.452;2023-02-15T10:02:11;1.92;;;1.33;;
53881;SDS011;39794;55.782;37.452;2023-02-15T10:04:54;4.25;;;2.08;;
53881;SDS011;39794;55.782;37.452;2023-02-15T10:07:37;2.83;;;1.63;;
53881;SDS011;39794;55.782;37.452;2023-02-15T10:10:32;3.00;;;1.30;;
53881;SDS011;39794;55.782;37.452;2023-02-15T10:13:20;7.15;;;2.28;;
53881;SDS011;39794;55.782;37.452;2023-02-15T10:16:00;3.90;;;1.40;;
53881;SDS011;39794;55.782;37.452;2023-02-15T10:18:41;6.53;;;1.40;;
53881;SDS011;39794;55.782;37.452;2023-02-15T10:21:19;1.60;;;1.27;;
53881;SDS011;39794;55.782;37.452;2023-02-15T10:24:02;5.82;;;1.83;;
53881;SDS011;39794;55.782;37.452;2023-02-15T10:26:42;4.05;;;1.40;;
53881;SDS011;39794;55.782;37.452;2023-02-15T10:29:14;3.92;;;2.10;;
53881;SDS011;39794;55.782;37.452;2023-02-15T10:31:54;3.00;;;1.33;;
53881;SDS011;39794;55.782;37.452;2023-02-15T10:34:31;2.00;;;1.65;;
53881;SDS011;39794;55.782;37.452;2023-02-15T10:37:10;2.15;;;1.35;;
53881;SDS011;39794;55.782;37.452;2023-02-15T10:39:54;3.45;;;1.50;;
53881;SDS011;39794;55.782;37.452;2023-02-15T10:42:30;3.10;;;1.20;;
53881;SDS011;39794;55.782;37.452;2023-02-15T10:45:12;3.58;;;1.70;;
53881;SDS011;39794;55.782;37.452;2023-02-15T10:47:50;3.08;;;1.50;;
53881;SDS011;39794;55.782;37.452;2023-02-15T10:50:36;4.72;;;1.40;;
53881;SDS011;39794;55.782;37.452;2023-02-15T10:53:22;5.00;;;1.50;;
53881;SDS011;39794;55.782;37.452;2023-02-15T10:56:03;8.73;;;2.70;;
53881;SDS011;39794;55.782;37.452;2023-02-15T10:58:44;3.72;;;1.40;;
53881;SDS011;39794;55.782;37.452;2023-02-15T11:01:24;2.40;;;1.65;;
53881;SDS011;39794;55.782;37.452;2023-02-15T11:04:05;2.92;;;1.23;;
53881;SDS011;39794;55.782;37.452;2023-02-15T11:06:46;2.42;;;1.65;;
53881;SDS011;39794;55.782;37.452;2023-02-15T11:09:24;1.75;;;1.08;;
53881;SDS011;39794;55.782;37.452;2023-02-15T11:11:53;2.85;;;1.45;;
53881;SDS011;39794;55.782;37.452;2023-02-15T11:14:27;2.90;;;1.40;;
53881;SDS011;39794;55.782;37.452;2023-02-15T11:17:02;2.47;;;1.30;;
53881;SDS011;39794;55.782;37.452;2023-02-15T11:19:34;2.28;;;1.10;;
53881;SDS011;39794;55.782;37.452;2023-02-15T11:22:06;1.58;;;0.95;;
53881;SDS011;39794;55.782;37.452;2023-02-15T11:24:39;3.30;;;1.20;;
53881;SDS011;39794;55.782;37.452;2023-02-15T11:29:46;2.45;;;1.30;;
53881;SDS011;39794;55.782;37.452;2023-02-15T11:32:25;1.60;;;1.30;;
53881;SDS011;39794;55.782;37.452;2023-02-15T11:34:55;3.67;;;1.20;;
53881;SDS011;39794;55.782;37.452;2023-02-15T11:37:31;1.83;;;1.42;;
53881;SDS011;39794;55.782;37.452;2023-02-15T11:40:12;4.20;;;1.33;;
53881;SDS011;39794;55.782;37.452;2023-02-15T11:42:46;2.53;;;1.00;;
53881;SDS011;39794;55.782;37.452;2023-02-15T11:45:21;2.00;;;1.20;;
53881;SDS011;39794;55.782;37.452;2023-02-15T11:47:52;4.63;;;1.20;;
53881;SDS011;39794;55.782;37.452;2023-02-15T11:50:26;2.83;;;1.08;;
53881;SDS011;39794;55.782;37.452;2023-02-15T11:53:01;2.50;;;1.00;;
53881;SDS011;39794;55.782;37.452;2023-02-15T11:55:32;3.92;;;1.63;;
53881;SDS011;39794;55.782;37.452;2023-02-15T11:58:04;2.65;;;1.10;;
53881;SDS011;39794;55.782;37.452;2023-02-15T12:00:35;1.05;;;0.88;;
53881;SDS011;39794;55.782;37.452;2023-02-15T12:03:09;1.98;;;0.93;;
53881;SDS011;39794;55.782;37.452;2023-02-15T12:05:42;2.60;;;1.38;;
53881;SDS011;39794;55.782;37.452;2023-02-15T12:08:18;2.58;;;1.52;;
53881;SDS011;39794;55.782;37.452;2023-02-15T12:10:57;5.32;;;1.73;;
53881;SDS011;39794;55.782;37.452;2023-02-15T12:13:28;3.85;;;1.73;;
53881;SDS011;39794;55.782;37.452;2023-02-15T12:15:58;4.97;;;1.67;;
53881;SDS011;39794;55.782;37.452;2023-02-15T12:18:39;2.10;;;1.00;;
53881;SDS011;39794;55.782;37.452;2023-02-15T12:21:12;5.63;;;1.85;;
53881;SDS011;39794;55.782;37.452;2023-02-15T12:23:46;1.35;;;1.10;;
53881;SDS011;39794;55.782;37.452;2023-02-15T12:26:25;3.83;;;1.67;;
53881;SDS011;39794;55.782;37.452;2023-02-15T12:29:00;1.40;;;1.13;;
53881;SDS011;39794;55.782;37.452;2023-02-15T12:31:33;0.82;;;0.82;;
53881;SDS011;39794;55.782;37.452;2023-02-15T12:34:08;1.75;;;1.08;;
53881;SDS011;39794;55.782;37.452;2023-02-15T12:36:43;2.17;;;1.00;;
53881;SDS011;39794;55.782;37.452;2023-02-15T12:39:19;1.75;;;0.80;;
53881;SDS011;39794;55.782;37.452;2023-02-15T12:42:00;5.63;;;1.00;;
53881;SDS011;39794;55.782;37.452;2023-02-15T12:44:31;2.50;;;1.10;;
53881;SDS011;39794;55.782;37.452;2023-02-15T12:47:04;0.60;;;0.55;;
53881;SDS011;39794;55.782;37.452;2023-02-15T12:49:34;1.15;;;0.70;;
53881;SDS011;39794;55.782;37.452;2023-02-15T12:52:04;1.15;;;0.55;;
53881;SDS011;39794;55.782;37.452;2023-02-15T12:54:41;1.80;;;1.00;;
53881;SDS011;39794;55.782;37.452;2023-02-15T12:57:14;1.10;;;0.70;;
53881;SDS011;39794;55.782;37.452;2023-02-15T12:59:50;0.98;;;0.65;;
53881;SDS011;39794;55.782;37.452;2023-02-15T13:02:25;1.52;;;1.00;;
53881;SDS011;39794;55.782;37.452;2023-02-15T13:04:56;5.72;;;1.10;;
53881;SDS011;39794;55.782;37.452;2023-02-15T13:07:29;3.13;;;0.80;;
53881;SDS011;39794;55.782;37.452;2023-02-15T13:10:00;2.08;;;0.85;;
53881;SDS011;39794;55.782;37.452;2023-02-15T13:12:31;2.13;;;1.00;;
53881;SDS011;39794;55.782;37.452;2023-02-15T13:15:03;2.78;;;1.05;;
53881;SDS011;39794;55.782;37.452;2023-02-15T13:17:50;1.50;;;0.90;;
53881;SDS011;39794;55.782;37.452;2023-02-15T13:20:24;0.73;;;0.73;;
53881;SDS011;39794;55.782;37.452;2023-02-15T13:22:57;2.15;;;1.48;;
53881;SDS011;39794;55.782;37.452;2023-02-15T13:25:31;5.93;;;1.50;;
53881;SDS011;39794;55.782;37.452;2023-02-15T13:28:06;2.58;;;1.40;;
53881;SDS011;39794;55.782;37.452;2023-02-15T13:30:42;2.22;;;1.08;;
53881;SDS011;39794;55.782;37.452;2023-02-15T13:33:14;0.60;;;0.55;;
53881;SDS011;39794;55.782;37.452;2023-02-15T13:35:46;1.10;;;1.00;;
53881;SDS011;39794;55.782;37.452;2023-02-15T13:38:25;4.60;;;1.20;;
53881;SDS011;39794;55.782;37.452;2023-02-15T13:41:12;2.42;;;1.00;;
53881;SDS011;39794;55.782;37.452;2023-02-15T13:43:46;5.00;;;1.00;;
53881;SDS011;39794;55.782;37.452;2023-02-15T13:46:23;2.40;;;0.90;;
53881;SDS011;39794;55.782;37.452;2023-02-15T13:49:13;2.08;;;1.00;;
53881;SDS011;39794;55.782;37.452;2023-02-15T13:51:50;1.63;;;0.80;;
53881;SDS011;39794;55.782;37.452;2023-02-15T13:54:30;2.60;;;0.90;;
53881;SDS011;39794;55.782;37.452;2023-02-15T13:57:19;1.83;;;0.93;;
53881;SDS011;39794;55.782;37.452;2023-02-15T13:59:58;2.15;;;1.25;;
53881;SDS011;39794;55.782;37.452;2023-02-15T14:05:51;3.42;;;1.30;;
53881;SDS011;39794;55.782;37.452;2023-02-15T14:08:27;2.90;;;1.05;;
53881;SDS011;39794;55.782;37.452;2023-02-15T14:11:06;1.50;;;1.00;;
53881;SDS011;39794;55.782;37.452;2023-02-15T14:16:45;1.70;;;0.95;;
53881;SDS011;39794;55.782;37.452;2023-02-15T14:19:34;5.15;;;1.33;;
53881;SDS011;39794;55.782;37.452;2023-02-15T14:22:07;1.10;;;0.88;;
53881;SDS011;39794;55.782;37.452;2023-02-15T14:24:40;1.10;;;0.70;;
53881;SDS011;39794;55.782;37.452;2023-02-15T14:27:17;0.80;;;0.80;;
53881;SDS011;39794;55.782;37.452;2023-02-15T14:29:54;1.02;;;0.63;;
53881;SDS011;39794;55.782;37.452;2023-02-15T14:32:27;1.05;;;0.70;;
53881;SDS011;39794;55.782;37.452;2023-02-15T14:35:02;0.80;;;0.60;;
53881;SDS011;39794;55.782;37.452;2023-02-15T14:37:35;1.77;;;1.00;;
53881;SDS011;39794;55.782;37.452;2023-02-15T14:40:11;2.55;;;0.80;;
53881;SDS011;39794;55.782;37.452;2023-02-15T14:43:04;4.43;;;0.70;;
53881;SDS011;39794;55.782;37.452;2023-02-15T14:45:38;0.68;;;0.60;;
53881;SDS011;39794;55.782;37.452;2023-02-15T14:48:11;2.15;;;1.13;;
53881;SDS011;39794;55.782;37.452;2023-02-15T14:50:50;1.42;;;0.77;;
53881;SDS011;39794;55.782;37.452;2023-02-15T14:56:16;1.15;;;1.08;;
53881;SDS011;39794;55.782;37.452;2023-02-15T15:01:50;1.30;;;1.02;;
53881;SDS011;39794;55.782;37.452;2023-02-15T15:04:25;4.53;;;1.20;;
53881;SDS011;39794;55.782;37.452;2023-02-15T15:07:08;1.17;;;1.10;;
53881;SDS011;39794;55.782;37.452;2023-02-15T15:09:40;1.30;;;1.05;;
53881;SDS011;39794;55.782;37.452;2023-02-15T15:15:10;0.68;;;0.68;;
53881;SDS011;39794;55.782;37.452;2023-02-15T15:17:55;2.08;;;0.80;;
53881;SDS011;39794;55.782;37.452;2023-02-15T15:20:38;4.13;;;1.10;;
53881;SDS011;39794;55.782;37.452;2023-02-15T15:26:20;3.97;;;1.30;;
53881;SDS011;39794;55.782;37.452;2023-02-15T15:28:58;1.33;;;0.80;;
53881;SDS011;39794;55.782;37.452;2023-02-15T15:31:35;1.27;;;1.00;;
53881;SDS011;39794;55.782;37.452;2023-02-15T15:40:42;1.63;;;0.95;;
53881;SDS011;39794;55.782;37.452;2023-02-15T15:46:37;1.85;;;0.85;;
53881;SDS011;39794;55.782;37.452;2023-02-15T15:49:27;2.33;;;1.00;;
53881;SDS011;39794;55.782;37.452;2023-02-15T15:51:59;4.55;;;1.00;;
53881;SDS011;39794;55.782;37.452;2023-02-15T15:54:28;2.13;;;1.10;;
53881;SDS011;39794;55.782;37.452;2023-02-15T15:56:59;3.70;;;1.10;;
53881;SDS011;39794;55.782;37.452;2023-02-15T15:59:31;1.13;;;0.93;;